sensor_id;sensor_type;location;lat;lon;timestamp;P1;durP1;ratioP1;P2;durP2;ratioP2
69334;SDS011;56477;52.742;15.242;2023-04-01T00:01:40;26.70;;;10.37;;
69334;SDS011;56477;52.742;15.242;2023-04-01T00:04:06;28.38;;;11.05;;
69334;SDS011;56477;52.742;15.242;2023-04-01T00:06:32;28.83;;;10.02;;
69334;SDS011;56477;52.742;15.242;2023-04-01T00:08:58;28.95;;;11.45;;
69334;SDS011;56477;52.742;15.242;2023-04-01T00:11:24;29.07;;;10.87;;
69334;SDS011;56477;52.742;15.242;2023-04-01T00:13:53;28.15;;;11.32;;
69334;SDS011;56477;52.742;15.242;2023-04-01T00:16:19;27.88;;;10.93;;
69334;SDS011;56477;52.742;15.242;2023-04-01T00:18:45;30.40;;;11.70;;
69334;SDS011;56477;52.742;15.242;2023-04-01T00:21:15;30.98;;;11.95;;
69334;SDS011;56477;52.742;15.242;2023-04-01T00:23:41;26.73;;;11.17;;
69334;SDS011;56477;52.742;15.242;2023-04-01T00:26:07;28.67;;;10.65;;
69334;SDS011;56477;52.742;15.242;2023-04-01T00:28:33;24.17;;;10.75;;
69334;SDS011;56477;52.742;15.242;2023-04-01T00:31:05;24.17;;;10.82;;
69334;SDS011;56477;52.742;15.242;2023-04-01T00:33:32;26.83;;;11.27;;
69334;SDS011;56477;52.742;15.242;2023-04-01T00:36:05;26.35;;;10.73;;
69334;SDS011;56477;52.742;15.242;2023-04-01T00:38:32;26.50;;;10.18;;
69334;SDS011;56477;52.742;15.242;2023-04-01T00:40:58;23.13;;;10.17;;
69334;SDS011;56477;52.742;15.242;2023-04-01T00:43:25;20.52;;;8.35;;
69334;SDS011;56477;52.742;15.242;2023-04-01T00:45:51;18.98;;;8.70;;
69334;SDS011;56477;52.742;15.242;2023-04-01T00:48:22;22.87;;;8.70;;
69334;SDS011;56477;52.742;15.242;2023-04-01T00:50:52;20.85;;;7.72;;
69334;SDS011;56477;52.742;15.242;2023-04-01T00:53:34;18.15;;;7.22;;
69334;SDS011;56477;52.742;15.242;2023-04-01T00:56:09;19.80;;;6.18;;
69334;SDS011;56477;52.742;15.242;2023-04-01T00:58:41;18.25;;;7.05;;
69334;SDS011;56477;52.742;15.242;2023-04-01T01:01:11;20.33;;;8.13;;
69334;SDS011;56477;52.742;15.242;2023-04-01T01:03:38;21.58;;;8.65;;
69334;SDS011;56477;52.742;15.242;2023-04-01T01:06:07;22.08;;;8.10;;
69334;SDS011;56477;52.742;15.242;2023-04-01T01:08:52;18.25;;;7.68;;
69334;SDS011;56477;52.742;15.242;2023-04-01T01:11:38;15.80;;;6.40;;
69334;SDS011;56477;52.742;15.242;2023-04-01T01:14:46;15.27;;;6.25;;
69334;SDS011;56477;52.742;15.242;2023-04-01T01:20:09;15.52;;;6.55;;
69334;SDS011;56477;52.742;15.242;2023-04-01T01:25:53;17.17;;;6.47;;
69334;SDS011;56477;52.742;15.242;2023-04-01T01:31:29;17.65;;;6.43;;
69334;SDS011;56477;52.742;15.242;2023-04-01T01:36:52;15.43;;;6.20;;
69334;SDS011;56477;52.742;15.242;2023-04-01T01:39:21;17.17;;;6.97;;
69334;SDS011;56477;52.742;15.242;2023-04-01T01:41:53;16.92;;;6.85;;
69334;SDS011;56477;52.742;15.242;2023-04-01T01:44:22;16.02;;;6.15;;
69334;SDS011;56477;52.742;15.242;2023-04-01T01:46:49;16.88;;;6.72;;
69334;SDS011;56477;52.742;15.242;2023-04-01T01:49:15;16.70;;;6.77;;
69334;SDS011;56477;52.742;15.242;2023-04-01T01:51:44;15.50;;;6.47;;
69334;SDS011;56477;52.742;15.242;2023-04-01T01:54:16;17.17;;;6.82;;
69334;SDS011;56477;52.742;15.242;2023-04-01T01:56:44;15.50;;;6.00;;
69334;SDS011;56477;52.742;15.242;2023-04-01T01:59:14;19.73;;;7.75;;
69334;SDS011;56477;52.742;15.242;2023-04-01T02:01:44;20.00;;;7.23;;
69334;SDS011;56477;52.742;15.242;2023-04-01T02:04:13;19.08;;;6.80;;
69334;SDS011;56477;52.742;15.242;2023-04-01T02:06:43;14.55;;;6.18;;
69334;SDS011;56477;52.742;15.242;2023-04-01T02:09:14;15.68;;;6.25;;
69334;SDS011;56477;52.742;15.242;2023-04-01T02:11:43;17.25;;;7.10;;
69334;SDS011;56477;52.742;15.242;2023-04-01T02:14:13;16.57;;;6.40;;
69334;SDS011;56477;52.742;15.242;2023-04-01T02:19:26;17.13;;;6.90;;
69334;SDS011;56477;52.742;15.242;2023-04-01T02:21:59;20.63;;;7.90;;
69334;SDS011;56477;52.742;15.242;2023-04-01T02:24:28;15.20;;;5.70;;
69334;SDS011;56477;52.742;15.242;2023-04-01T02:26:57;21.40;;;8.30;;
69334;SDS011;56477;52.742;15.242;2023-04-01T02:29:23;21.98;;;7.82;;
69334;SDS011;56477;52.742;15.242;2023-04-01T02:31:53;17.85;;;5.72;;
69334;SDS011;56477;52.742;15.242;2023-04-01T02:34:20;22.27;;;8.73;;
69334;SDS011;56477;52.742;15.242;2023-04-01T02:36:48;19.27;;;7.97;;
69334;SDS011;56477;52.742;15.242;2023-04-01T02:39:15;19.67;;;8.48;;
69334;SDS011;56477;52.742;15.242;2023-04-01T02:41:43;21.25;;;8.05;;
69334;SDS011;56477;52.742;15.242;2023-04-01T02:44:11;20.85;;;8.13;;
69334;SDS011;56477;52.742;15.242;2023-04-01T02:46:39;21.77;;;8.15;;
69334;SDS011;56477;52.742;15.242;2023-04-01T02:49:04;19.97;;;6.97;;
69334;SDS011;56477;52.742;15.242;2023-04-01T02:51:31;19.30;;;7.22;;
69334;SDS011;56477;52.742;15.242;2023-04-01T02:53:57;24.42;;;7.95;;
69334;SDS011;56477;52.742;15.242;2023-04-01T02:56:23;22.13;;;7.55;;
69334;SDS011;56477;52.742;15.242;2023-04-01T02:58:49;26.27;;;8.10;;
69334;SDS011;56477;52.742;15.242;2023-04-01T03:01:16;20.65;;;7.85;;
69334;SDS011;56477;52.742;15.242;2023-04-01T03:03:41;22.63;;;7.93;;
69334;SDS011;56477;52.742;15.242;2023-04-01T03:06:08;24.58;;;8.70;;
69334;SDS011;56477;52.742;15.242;2023-04-01T03:08:36;22.20;;;7.20;;
69334;SDS011;56477;52.742;15.242;2023-04-01T03:11:02;22.30;;;7.30;;
69334;SDS011;56477;52.742;15.242;2023-04-01T03:13:28;20.02;;;7.25;;
69334;SDS011;56477;52.742;15.242;2023-04-01T03:15:54;25.20;;;8.03;;
69334;SDS011;56477;52.742;15.242;2023-04-01T03:18:20;25.70;;;8.45;;
69334;SDS011;56477;52.742;15.242;2023-04-01T03:20:47;24.48;;;7.70;;
69334;SDS011;56477;52.742;15.242;2023-04-01T03:23:13;22.50;;;8.30;;
69334;SDS011;56477;52.742;15.242;2023-04-01T03:25:39;24.90;;;7.63;;
69334;SDS011;56477;52.742;15.242;2023-04-01T03:28:05;23.98;;;8.02;;
69334;SDS011;56477;52.742;15.242;2023-04-01T03:30:31;23.42;;;8.00;;
69334;SDS011;56477;52.742;15.242;2023-04-01T03:32:57;24.63;;;7.27;;
69334;SDS011;56477;52.742;15.242;2023-04-01T03:35:25;24.13;;;7.32;;
69334;SDS011;56477;52.742;15.242;2023-04-01T03:37:51;29.58;;;9.60;;
69334;SDS011;56477;52.742;15.242;2023-04-01T03:40:18;28.55;;;9.13;;
69334;SDS011;56477;52.742;15.242;2023-04-01T03:42:45;24.27;;;8.68;;
69334;SDS011;56477;52.742;15.242;2023-04-01T03:45:11;28.67;;;9.63;;
69334;SDS011;56477;52.742;15.242;2023-04-01T03:47:38;24.90;;;8.45;;
69334;SDS011;56477;52.742;15.242;2023-04-01T03:50:05;26.40;;;8.38;;
69334;SDS011;56477;52.742;15.242;2023-04-01T03:52:31;26.30;;;9.27;;
69334;SDS011;56477;52.742;15.242;2023-04-01T03:54:58;24.05;;;7.75;;
69334;SDS011;56477;52.742;15.242;2023-04-01T03:57:24;26.10;;;8.50;;
69334;SDS011;56477;52.742;15.242;2023-04-01T03:59:50;25.75;;;8.50;;
69334;SDS011;56477;52.742;15.242;2023-04-01T04:02:16;27.27;;;8.65;;
69334;SDS011;56477;52.742;15.242;2023-04-01T04:04:43;20.77;;;7.10;;
69334;SDS011;56477;52.742;15.242;2023-04-01T04:07:09;25.02;;;8.30;;
69334;SDS011;56477;52.742;15.242;2023-04-01T04:09:35;23.35;;;8.32;;
69334;SDS011;56477;52.742;15.242;2023-04-01T04:12:01;24.83;;;8.47;;
69334;SDS011;56477;52.742;15.242;2023-04-01T04:14:27;18.67;;;6.60;;
69334;SDS011;56477;52.742;15.242;2023-04-01T04:16:53;27.05;;;8.15;;
69334;SDS011;56477;52.742;15.242;2023-04-01T04:19:19;22.58;;;7.60;;
69334;SDS011;56477;52.742;15.242;2023-04-01T04:21:45;25.83;;;8.13;;
69334;SDS011;56477;52.742;15.242;2023-04-01T04:24:11;28.25;;;8.68;;
69334;SDS011;56477;52.742;15.242;2023-04-01T04:26:36;24.75;;;8.02;;
69334;SDS011;56477;52.742;15.242;2023-04-01T04:29:02;19.95;;;6.35;;
69334;SDS011;56477;52.742;15.242;2023-04-01T04:31:28;28.10;;;8.27;;
69334;SDS011;56477;52.742;15.242;2023-04-01T04:33:54;19.23;;;6.47;;
69334;SDS011;56477;52.742;15.242;2023-04-01T04:36:21;24.13;;;7.93;;
69334;SDS011;56477;52.742;15.242;2023-04-01T04:38:48;24.65;;;7.53;;
69334;SDS011;56477;52.742;15.242;2023-04-01T04:41:14;23.20;;;7.23;;
69334;SDS011;56477;52.742;15.242;2023-04-01T04:43:48;22.65;;;6.60;;
69334;SDS011;56477;52.742;15.242;2023-04-01T04:46:15;24.77;;;6.97;;
69334;SDS011;56477;52.742;15.242;2023-04-01T04:48:41;25.98;;;7.50;;
69334;SDS011;56477;52.742;15.242;2023-04-01T04:51:12;26.73;;;7.53;;
69334;SDS011;56477;52.742;15.242;2023-04-01T04:53:39;24.50;;;7.20;;
69334;SDS011;56477;52.742;15.242;2023-04-01T04:56:05;26.77;;;7.72;;
69334;SDS011;56477;52.742;15.242;2023-04-01T04:58:32;30.02;;;9.60;;
69334;SDS011;56477;52.742;15.242;2023-04-01T05:00:58;24.02;;;8.07;;
69334;SDS011;56477;52.742;15.242;2023-04-01T05:03:25;24.92;;;8.00;;
69334;SDS011;56477;52.742;15.242;2023-04-01T05:05:51;22.13;;;7.20;;
69334;SDS011;56477;52.742;15.242;2023-04-01T05:08:18;23.17;;;7.25;;
69334;SDS011;56477;52.742;15.242;2023-04-01T05:10:45;22.10;;;6.57;;
69334;SDS011;56477;52.742;15.242;2023-04-01T05:13:11;23.07;;;6.67;;
69334;SDS011;56477;52.742;15.242;2023-04-01T05:15:37;24.23;;;6.72;;
69334;SDS011;56477;52.742;15.242;2023-04-01T05:18:03;21.50;;;6.65;;
69334;SDS011;56477;52.742;15.242;2023-04-01T05:20:29;26.03;;;6.60;;
69334;SDS011;56477;52.742;15.242;2023-04-01T05:22:55;18.03;;;6.03;;
69334;SDS011;56477;52.742;15.242;2023-04-01T05:25:24;19.15;;;6.15;;
69334;SDS011;56477;52.742;15.242;2023-04-01T05:27:51;19.35;;;6.22;;
69334;SDS011;56477;52.742;15.242;2023-04-01T05:30:17;20.48;;;5.78;;
69334;SDS011;56477;52.742;15.242;2023-04-01T05:32:43;16.65;;;5.25;;
69334;SDS011;56477;52.742;15.242;2023-04-01T05:35:10;16.93;;;4.90;;
69334;SDS011;56477;52.742;15.242;2023-04-01T05:37:36;17.40;;;5.40;;
69334;SDS011;56477;52.742;15.242;2023-04-01T05:40:03;18.80;;;5.47;;
69334;SDS011;56477;52.742;15.242;2023-04-01T05:42:30;15.90;;;5.00;;
69334;SDS011;56477;52.742;15.242;2023-04-01T05:44:56;17.00;;;5.70;;
69334;SDS011;56477;52.742;15.242;2023-04-01T05:47:22;19.90;;;6.10;;
69334;SDS011;56477;52.742;15.242;2023-04-01T05:49:48;19.38;;;6.20;;
69334;SDS011;56477;52.742;15.242;2023-04-01T05:52:14;19.23;;;6.90;;
69334;SDS011;56477;52.742;15.242;2023-04-01T05:54:40;18.98;;;6.75;;
69334;SDS011;56477;52.742;15.242;2023-04-01T05:57:06;18.53;;;6.63;;
69334;SDS011;56477;52.742;15.242;2023-04-01T05:59:32;21.40;;;7.40;;
69334;SDS011;56477;52.742;15.242;2023-04-01T06:02:00;22.58;;;8.82;;
69334;SDS011;56477;52.742;15.242;2023-04-01T06:04:26;19.05;;;6.93;;
69334;SDS011;56477;52.742;15.242;2023-04-01T06:07:00;17.67;;;6.07;;
69334;SDS011;56477;52.742;15.242;2023-04-01T06:09:27;13.77;;;4.88;;
69334;SDS011;56477;52.742;15.242;2023-04-01T06:12:08;12.63;;;4.70;;
69334;SDS011;56477;52.742;15.242;2023-04-01T06:29:27;12.23;;;4.72;;
69334;SDS011;56477;52.742;15.242;2023-04-01T06:40:25;18.02;;;6.30;;
69334;SDS011;56477;52.742;15.242;2023-04-01T06:43:22;19.33;;;6.18;;
69334;SDS011;56477;52.742;15.242;2023-04-01T06:46:06;19.77;;;7.40;;
69334;SDS011;56477;52.742;15.242;2023-04-01T06:48:43;17.40;;;7.03;;
69334;SDS011;56477;52.742;15.242;2023-04-01T06:54:08;20.02;;;6.78;;
69334;SDS011;56477;52.742;15.242;2023-04-01T06:56:38;17.92;;;7.03;;
69334;SDS011;56477;52.742;15.242;2023-04-01T06:59:27;18.80;;;8.13;;
69334;SDS011;56477;52.742;15.242;2023-04-01T07:01:57;17.60;;;7.63;;
69334;SDS011;56477;52.742;15.242;2023-04-01T07:04:30;18.10;;;6.50;;
69334;SDS011;56477;52.742;15.242;2023-04-01T07:07:00;17.15;;;6.40;;
69334;SDS011;56477;52.742;15.242;2023-04-01T07:09:52;19.63;;;6.65;;
69334;SDS011;56477;52.742;15.242;2023-04-01T07:12:31;15.88;;;6.20;;
69334;SDS011;56477;52.742;15.242;2023-04-01T07:15:12;15.93;;;6.17;;
69334;SDS011;56477;52.742;15.242;2023-04-01T07:17:45;17.63;;;7.03;;
69334;SDS011;56477;52.742;15.242;2023-04-01T07:20:32;21.00;;;6.85;;
69334;SDS011;56477;52.742;15.242;2023-04-01T07:23:22;15.95;;;5.93;;
69334;SDS011;56477;52.742;15.242;2023-04-01T07:26:13;16.70;;;6.15;;
69334;SDS011;56477;52.742;15.242;2023-04-01T07:28:44;16.47;;;6.20;;
69334;SDS011;56477;52.742;15.242;2023-04-01T07:36:39;15.27;;;5.70;;
69334;SDS011;56477;52.742;15.242;2023-04-01T07:44:47;14.93;;;6.05;;
69334;SDS011;56477;52.742;15.242;2023-04-01T07:50:35;16.50;;;6.20;;
69334;SDS011;56477;52.742;15.242;2023-04-01T07:53:18;14.65;;;5.82;;
69334;SDS011;56477;52.742;15.242;2023-04-01T07:56:30;11.37;;;5.07;;
69334;SDS011;56477;52.742;15.242;2023-04-01T08:15:24;14.68;;;5.85;;
69334;SDS011;56477;52.742;15.242;2023-04-01T08:23:21;11.87;;;5.27;;
69334;SDS011;56477;52.742;15.242;2023-04-01T08:34:15;12.95;;;5.07;;
69334;SDS011;56477;52.742;15.242;2023-04-01T08:36:59;12.47;;;5.03;;
69334;SDS011;56477;52.742;15.242;2023-04-01T08:42:31;15.73;;;5.93;;
69334;SDS011;56477;52.742;15.242;2023-04-01T08:57:18;15.65;;;5.38;;
69334;SDS011;56477;52.742;15.242;2023-04-01T09:14:15;16.65;;;5.53;;
69334;SDS011;56477;52.742;15.242;2023-04-01T09:22:25;11.82;;;5.40;;
69334;SDS011;56477;52.742;15.242;2023-04-01T09:25:21;14.70;;;5.57;;
69334;SDS011;56477;52.742;15.242;2023-04-01T09:35:48;9.27;;;3.85;;
69334;SDS011;56477;52.742;15.242;2023-04-01T09:41:31;10.10;;;5.03;;
69334;SDS011;56477;52.742;15.242;2023-04-01T09:44:23;12.20;;;5.93;;
69334;SDS011;56477;52.742;15.242;2023-04-01T09:52:44;11.23;;;5.20;;
69334;SDS011;56477;52.742;15.242;2023-04-01T10:06:58;11.45;;;5.15;;
69334;SDS011;56477;52.742;15.242;2023-04-01T10:29:36;9.17;;;3.80;;
69334;SDS011;56477;52.742;15.242;2023-04-01T10:46:08;6.95;;;3.80;;
69334;SDS011;56477;52.742;15.242;2023-04-01T10:56:55;6.40;;;3.60;;
69334;SDS011;56477;52.742;15.242;2023-04-01T10:59:42;7.05;;;3.03;;
69334;SDS011;56477;52.742;15.242;2023-04-01T11:02:38;7.63;;;3.63;;
69334;SDS011;56477;52.742;15.242;2023-04-01T11:30:26;7.20;;;3.40;;
69334;SDS011;56477;52.742;15.242;2023-04-01T11:33:23;7.30;;;3.50;;
69334;SDS011;56477;52.742;15.242;2023-04-01T11:41:49;8.30;;;3.80;;
69334;SDS011;56477;52.742;15.242;2023-04-01T11:44:26;7.45;;;3.85;;
69334;SDS011;56477;52.742;15.242;2023-04-01T12:03:54;7.78;;;3.80;;
69334;SDS011;56477;52.742;15.242;2023-04-01T12:06:44;9.35;;;3.67;;
69334;SDS011;56477;52.742;15.242;2023-04-01T12:17:39;7.53;;;2.90;;
69334;SDS011;56477;52.742;15.242;2023-04-01T12:23:02;7.50;;;3.67;;
69334;SDS011;56477;52.742;15.242;2023-04-01T12:25:58;7.45;;;3.75;;
69334;SDS011;56477;52.742;15.242;2023-04-01T12:28:46;7.87;;;3.70;;
69334;SDS011;56477;52.742;15.242;2023-04-01T12:35:08;7.60;;;4.25;;
69334;SDS011;56477;52.742;15.242;2023-04-01T12:46:00;8.32;;;4.03;;
69334;SDS011;56477;52.742;15.242;2023-04-01T12:52:09;8.43;;;4.18;;
69334;SDS011;56477;52.742;15.242;2023-04-01T13:22:50;9.65;;;4.15;;
69334;SDS011;56477;52.742;15.242;2023-04-01T13:27:56;9.48;;;4.72;;
69334;SDS011;56477;52.742;15.242;2023-04-01T13:34:36;11.80;;;4.90;;
69334;SDS011;56477;52.742;15.242;2023-04-01T13:36:35;8.65;;;4.55;;
69334;SDS011;56477;52.742;15.242;2023-04-01T13:39:13;10.33;;;4.53;;
69334;SDS011;56477;52.742;15.242;2023-04-01T13:41:57;9.38;;;4.63;;
69334;SDS011;56477;52.742;15.242;2023-04-01T13:44:37;10.60;;;5.45;;
69334;SDS011;56477;52.742;15.242;2023-04-01T14:01:37;11.50;;;5.65;;
69334;SDS011;56477;52.742;15.242;2023-04-01T14:15:42;8.30;;;4.57;;
69334;SDS011;56477;52.742;15.242;2023-04-01T14:21:29;8.20;;;3.63;;
69334;SDS011;56477;52.742;15.242;2023-04-01T14:32:23;9.60;;;4.07;;
69334;SDS011;56477;52.742;15.242;2023-04-01T14:43:20;9.23;;;4.65;;
69334;SDS011;56477;52.742;15.242;2023-04-01T14:49:53;6.88;;;3.75;;
69334;SDS011;56477;52.742;15.242;2023-04-01T14:52:14;7.63;;;3.67;;
69334;SDS011;56477;52.742;15.242;2023-04-01T14:54:47;7.95;;;3.53;;
69334;SDS011;56477;52.742;15.242;2023-04-01T14:57:23;8.10;;;4.28;;
69334;SDS011;56477;52.742;15.242;2023-04-01T14:59:52;9.13;;;3.83;;
69334;SDS011;56477;52.742;15.242;2023-04-01T15:24:38;5.57;;;3.10;;
69334;SDS011;56477;52.742;15.242;2023-04-01T15:27:18;3.60;;;1.43;;
69334;SDS011;56477;52.742;15.242;2023-04-01T15:30:09;7.85;;;3.65;;
69334;SDS011;56477;52.742;15.242;2023-04-01T15:43:53;6.88;;;3.60;;
69334;SDS011;56477;52.742;15.242;2023-04-01T15:46:24;6.60;;;3.53;;
69334;SDS011;56477;52.742;15.242;2023-04-01T15:49:19;7.57;;;3.35;;
69334;SDS011;56477;52.742;15.242;2023-04-01T16:02:49;8.52;;;3.47;;
69334;SDS011;56477;52.742;15.242;2023-04-01T16:05:32;8.63;;;3.83;;
69334;SDS011;56477;52.742;15.242;2023-04-01T16:13:53;8.15;;;3.65;;
69334;SDS011;56477;52.742;15.242;2023-04-01T16:16:38;8.05;;;4.30;;
69334;SDS011;56477;52.742;15.242;2023-04-01T16:19:19;7.63;;;4.20;;
69334;SDS011;56477;52.742;15.242;2023-04-01T16:21:58;7.88;;;4.15;;
69334;SDS011;56477;52.742;15.242;2023-04-01T16:29:38;7.07;;;3.63;;
69334;SDS011;56477;52.742;15.242;2023-04-01T16:32:57;7.27;;;2.73;;
69334;SDS011;56477;52.742;15.242;2023-04-01T16:37:59;8.98;;;4.00;;
69334;SDS011;56477;52.742;15.242;2023-04-01T16:43:28;6.55;;;3.30;;
69334;SDS011;56477;52.742;15.242;2023-04-01T16:51:46;7.88;;;4.28;;
69334;SDS011;56477;52.742;15.242;2023-04-01T16:56:50;8.65;;;3.83;;
69334;SDS011;56477;52.742;15.242;2023-04-01T16:59:29;9.27;;;3.83;;
69334;SDS011;56477;52.742;15.242;2023-04-01T17:02:07;7.30;;;3.08;;
69334;SDS011;56477;52.742;15.242;2023-04-01T17:04:43;6.72;;;3.47;;
69334;SDS011;56477;52.742;15.242;2023-04-01T17:15:37;6.57;;;2.63;;
69334;SDS011;56477;52.742;15.242;2023-04-01T17:24:05;8.55;;;3.00;;
69334;SDS011;56477;52.742;15.242;2023-04-01T17:26:53;7.23;;;3.20;;
69334;SDS011;56477;52.742;15.242;2023-04-01T17:29:34;6.40;;;3.05;;
69334;SDS011;56477;52.742;15.242;2023-04-01T17:32:18;7.45;;;3.35;;
69334;SDS011;56477;52.742;15.242;2023-04-01T17:37:34;8.40;;;3.28;;
69334;SDS011;56477;52.742;15.242;2023-04-01T17:40:30;5.13;;;1.73;;
69334;SDS011;56477;52.742;15.242;2023-04-01T17:43:22;7.57;;;2.70;;
69334;SDS011;56477;52.742;15.242;2023-04-01T17:45:57;6.03;;;2.50;;
69334;SDS011;56477;52.742;15.242;2023-04-01T17:51:08;6.18;;;2.45;;
69334;SDS011;56477;52.742;15.242;2023-04-01T18:10:19;6.60;;;2.55;;
69334;SDS011;56477;52.742;15.242;2023-04-01T18:12:58;5.70;;;2.47;;
69334;SDS011;56477;52.742;15.242;2023-04-01T18:15:40;5.30;;;2.70;;
69334;SDS011;56477;52.742;15.242;2023-04-01T18:21:00;5.00;;;2.13;;
69334;SDS011;56477;52.742;15.242;2023-04-01T18:23:45;5.90;;;2.45;;
69334;SDS011;56477;52.742;15.242;2023-04-01T18:26:32;4.28;;;2.05;;
69334;SDS011;56477;52.742;15.242;2023-04-01T18:31:38;6.45;;;2.55;;
69334;SDS011;56477;52.742;15.242;2023-04-01T18:34:08;5.10;;;2.13;;
69334;SDS011;56477;52.742;15.242;2023-04-01T18:39:14;6.18;;;2.72;;
69334;SDS011;56477;52.742;15.242;2023-04-01T18:44:40;5.38;;;2.17;;
69334;SDS011;56477;52.742;15.242;2023-04-01T18:50:22;6.53;;;2.55;;
69334;SDS011;56477;52.742;15.242;2023-04-01T18:53:00;5.88;;;2.30;;
69334;SDS011;56477;52.742;15.242;2023-04-01T18:55:39;5.88;;;2.50;;
69334;SDS011;56477;52.742;15.242;2023-04-01T18:58:23;6.07;;;2.33;;
69334;SDS011;56477;52.742;15.242;2023-04-01T19:01:13;6.50;;;2.70;;
69334;SDS011;56477;52.742;15.242;2023-04-01T19:04:13;6.18;;;2.70;;
69334;SDS011;56477;52.742;15.242;2023-04-01T19:07:00;6.57;;;2.45;;
69334;SDS011;56477;52.742;15.242;2023-04-01T19:09:48;7.57;;;2.72;;
69334;SDS011;56477;52.742;15.242;2023-04-01T19:20:34;9.57;;;4.03;;
69334;SDS011;56477;52.742;15.242;2023-04-01T19:31:38;8.02;;;2.78;;
69334;SDS011;56477;52.742;15.242;2023-04-01T19:36:52;7.75;;;4.03;;
69334;SDS011;56477;52.742;15.242;2023-04-01T19:44:30;8.63;;;3.97;;
69334;SDS011;56477;52.742;15.242;2023-04-01T19:49:48;9.93;;;3.83;;
69334;SDS011;56477;52.742;15.242;2023-04-01T19:52:36;8.25;;;2.83;;
69334;SDS011;56477;52.742;15.242;2023-04-01T19:55:20;7.63;;;3.27;;
69334;SDS011;56477;52.742;15.242;2023-04-01T19:57:49;6.20;;;2.65;;
69334;SDS011;56477;52.742;15.242;2023-04-01T20:06:02;9.20;;;4.10;;
69334;SDS011;56477;52.742;15.242;2023-04-01T20:11:41;9.88;;;3.95;;
69334;SDS011;56477;52.742;15.242;2023-04-01T20:14:29;9.10;;;3.83;;
69334;SDS011;56477;52.742;15.242;2023-04-01T20:25:16;9.07;;;3.53;;
69334;SDS011;56477;52.742;15.242;2023-04-01T20:28:19;12.35;;;4.38;;
69334;SDS011;56477;52.742;15.242;2023-04-01T20:55:34;7.63;;;2.80;;
69334;SDS011;56477;52.742;15.242;2023-04-01T20:58:28;7.00;;;2.90;;
69334;SDS011;56477;52.742;15.242;2023-04-01T21:04:10;7.07;;;2.70;;
69334;SDS011;56477;52.742;15.242;2023-04-01T21:12:01;7.22;;;3.03;;
69334;SDS011;56477;52.742;15.242;2023-04-01T21:17:08;6.73;;;2.50;;
69334;SDS011;56477;52.742;15.242;2023-04-01T21:35:54;3.15;;;1.35;;
69334;SDS011;56477;52.742;15.242;2023-04-01T21:38:48;5.45;;;2.17;;
69334;SDS011;56477;52.742;15.242;2023-04-01T21:41:30;4.03;;;1.90;;
69334;SDS011;56477;52.742;15.242;2023-04-01T21:45:01;9.07;;;2.90;;
69334;SDS011;56477;52.742;15.242;2023-04-01T21:47:36;7.18;;;2.20;;
69334;SDS011;56477;52.742;15.242;2023-04-01T21:53:02;6.57;;;2.60;;
69334;SDS011;56477;52.742;15.242;2023-04-01T22:25:50;5.60;;;1.97;;
69334;SDS011;56477;52.742;15.242;2023-04-01T22:28:24;6.40;;;1.98;;
69334;SDS011;56477;52.742;15.242;2023-04-01T22:30:59;4.20;;;1.63;;
69334;SDS011;56477;52.742;15.242;2023-04-01T22:41:17;4.88;;;1.80;;
69334;SDS011;56477;52.742;15.242;2023-04-01T22:43:55;3.72;;;1.20;;
69334;SDS011;56477;52.742;15.242;2023-04-01T22:56:51;5.43;;;1.23;;
69334;SDS011;56477;52.742;15.242;2023-04-01T23:01:59;4.10;;;1.38;;
69334;SDS011;56477;52.742;15.242;2023-04-01T23:04:34;6.23;;;1.30;;
69334;SDS011;56477;52.742;15.242;2023-04-01T23:09:57;5.03;;;2.15;;
69334;SDS011;56477;52.742;15.242;2023-04-01T23:12:26;6.65;;;1.88;;
69334;SDS011;56477;52.742;15.242;2023-04-01T23:14:56;4.65;;;1.27;;
69334;SDS011;56477;52.742;15.242;2023-04-01T23:20:16;2.17;;;0.68;;
69334;SDS011;56477;52.742;15.242;2023-04-01T23:26:01;2.13;;;0.95;;
69334;SDS011;56477;52.742;15.242;2023-04-01T23:28:39;3.83;;;1.25;;
69334;SDS011;56477;52.742;15.242;2023-04-01T23:36:38;5.40;;;1.38;;
69334;SDS011;56477;52.742;15.242;2023-04-01T23:39:49;6.32;;;1.75;;
69334;SDS011;56477;52.742;15.242;2023-04-01T23:44:57;4.60;;;1.60;;
69334;SDS011;56477;52.742;15.242;2023-04-01T23:47:26;4.15;;;1.10;;
69334;SDS011;56477;52.742;15.242;2023-04-01T23:50:01;5.90;;;1.75;;
69334;SDS011;56477;52.742;15.242;2023-04-01T23:52:40;6.38;;;1.35;;
